DW0019 Weather Reports


Display with metric or nautical units.
time (UTC)temp
F
wind
direction
speed
MPH
gust
MPH
rain 1hr
in
rain 24hr
in
rain mn
in
humidity
%
barometer
mb
20240227023206 46 151 0.0 0.0 0.00 0.00 0.00 70 1008.4
20240227022207 46 151 0.0 0.0 0.00 0.00 0.00 69 1008.5
20240227021206 47 151 0.0 0.0 0.00 0.00 0.00 69 1008.5
20240227020306 47 151 0.0 0.0 0.00 0.00 0.00 68 1008.6
20240227015206 48 151 0.0 0.0 0.00 0.00 0.00 67 1008.8
20240227014306 48 151 0.0 0.0 0.00 0.00 0.00 67 1008.9
20240227013206 48 151 0.0 0.0 0.00 0.00 0.00 66 1008.8
20240227012206 49 152 0.0 0.0 0.00 0.00 0.00 65 1008.9
20240227011206 50 152 0.0 0.0 0.00 0.00 0.00 64 1009.0
20240227010206 50 152 0.0 0.0 0.00 0.00 0.00 63 1009.0
20240227005206 51 152 0.0 0.0 0.00 0.00 0.00 62 1009.1
20240227004205 51 152 0.0 0.0 0.00 0.00 0.00 62 1009.1
20240227003205 52 152 0.0 0.0 0.00 0.00 0.00 60 1009.2
20240227002205 52 152 0.0 0.0 0.00 0.00 0.00 58 1009.3
20240227001205 53 152 0.0 0.0 0.00 0.00 0.00 57 1009.4
20240227000205 54 152 0.0 0.0 0.00 0.00 0.00 55 1009.4
20240226235206 55 152 0.0 0.0 0.00 0.00 0.00 53 1009.4
20240226234205 56 152 0.0 0.0 0.00 0.00 0.00 51 1009.3
20240226233205 58 152 0.0 0.0 0.00 0.00 0.00 49 1009.3
20240226232205 59 152 0.0 0.0 0.00 0.00 0.00 47 1009.2
20240226231204 60 152 0.0 0.0 0.00 0.00 0.00 46 1009.2
20240226230204 60 144 0.0 0.0 0.00 0.00 0.00 45 1009.1
20240226225204 61 157 0.0 2.0 0.00 0.00 0.00 45 1009.1
20240226224204 61 144 0.0 8.0 0.00 0.00 0.00 44 1009.2
20240226223204 62 136 0.0 3.0 0.00 0.00 0.00 44 1009.1
20240226222204 62 155 0.0 11.0 0.00 0.00 0.00 43 1009.2
20240226221205 62 219 4.0 8.0 0.00 0.00 0.00 43 1009.4
20240226220204 63 175 4.0 12.0 0.00 0.00 0.00 42 1009.4
20240226215204 63 152 3.0 11.0 0.00 0.00 0.00 43 1009.4
20240226214204 64 147 3.0 9.0 0.00 0.00 0.00 43 1009.5
20240226213205 64 178 0.0 6.0 0.00 0.00 0.00 43 1009.6
20240226212205 64 256 3.0 6.0 0.00 0.00 0.00 43 1009.7
20240226211204 64 229 3.0 8.0 0.00 0.00 0.00 41 1009.9
20240226210203 65 242 4.0 8.0 0.00 0.00 0.00 42 1010.0
20240226205204 65 196 0.0 8.0 0.00 0.00 0.00 43 1010.1
20240226204203 65 162 0.0 8.0 0.00 0.00 0.00 41 1010.1
20240226203203 65 186 0.0 6.0 0.00 0.00 0.00 43 1010.3
20240226202203 65 226 3.0 11.0 0.00 0.00 0.00 42 1010.3
20240226201203 65 204 5.0 14.0 0.00 0.00 0.00 43 1010.4
20240226200203 65 146 3.0 6.0 0.00 0.00 0.00 43 1010.5
20240226195223 64 206 0.0 5.0 0.00 0.00 0.00 44 1010.6
20240226194203 64 225 7.0 17.0 0.00 0.00 0.00 43 1010.6
20240226193203 64 141 1.0 8.0 0.00 0.00 0.00 44 1010.6
20240226192202 63 142 3.0 8.0 0.00 0.00 0.00 46 1010.8
20240226191202 63 152 3.0 11.0 0.00 0.00 0.00 44 1011.0
20240226190202 63 219 0.0 15.0 0.00 0.00 0.00 45 1011.1
20240226185222 62 219 7.0 12.0 0.00 0.00 0.00 45 1011.3
20240226184202 62 124 4.0 9.0 0.00 0.00 0.00 44 1011.5
20240226183202 61 147 0.0 9.0 0.00 0.00 0.00 48 1011.7
20240226182202 60 242 0.0 5.0 0.00 0.00 0.00 49 1011.9
20240226181202 60 242 0.0 6.0 0.00 0.00 0.00 48 1012.0
20240226180402 59 150 1.0 3.0 0.00 0.00 0.00 46 1012.1
20240226175202 60 118 3.0 8.0 0.00 0.00 0.00 47 1012.3
20240226174202 59 147 0.0 14.0 0.00 0.00 0.00 46 1012.6
20240226173222 60 213 0.0 6.0 0.00 0.00 0.00 47 1012.7
20240226172201 59 169 1.0 5.0 0.00 0.00 0.00 48 1012.9
20240226171202 58 161 1.0 11.0 0.00 0.00 0.00 47 1012.9
20240226170201 58 111 0.0 5.0 0.00 0.00 0.00 48 1013.1
20240226165201 57 209 0.0 5.0 0.00 0.00 0.00 49 1013.2
20240226164201 56 143 1.0 5.0 0.00 0.00 0.00 49 1013.2
20240226163201 55 121 0.0 2.0 0.00 0.00 0.00 49 1013.3
20240226162201 55 202 0.0 5.0 0.00 0.00 0.00 49 1013.4
20240226161201 54 218 4.0 8.0 0.00 0.00 0.00 50 1013.5
20240226160301 54 163 3.0 6.0 0.00 0.00 0.00 52 1013.6
20240226155201 53 223 0.0 5.0 0.00 0.00 0.00 51 1013.7
20240226154201 52 153 0.0 3.0 0.00 0.00 0.00 53 1013.7
20240226153221 52 227 0.0 6.0 0.00 0.00 0.00 53 1013.8
20240226152201 51 242 4.0 6.0 0.00 0.00 0.00 54 1013.8
20240226151201 50 231 3.0 5.0 0.00 0.00 0.00 55 1013.8
20240226150200 49 186 0.0 5.0 0.00 0.00 0.00 57 1013.8
20240226145220 48 225 0.0 9.0 0.00 0.00 0.00 57 1013.8
20240226144201 47 237 3.0 5.0 0.00 0.00 0.00 60 1013.8
20240226143200 46 213 0.0 11.0 0.00 0.00 0.00 60 1013.8
20240226142201 45 226 0.0 8.0 0.00 0.00 0.00 65 1013.8
20240226141201 42 213 7.0 9.0 0.00 0.00 0.00 74 1013.7
20240226140200 40 233 0.0 0.0 0.00 0.00 0.00 82 1013.6
20240226135200 38 233 0.0 0.0 0.00 0.00 0.00 84 1013.5
20240226134200 36 233 0.0 0.0 0.00 0.00 0.00 86 1013.6
20240226133200 34 233 0.0 0.0 0.00 0.00 0.00 87 1013.4
20240226132159 33 233 0.0 0.0 0.00 0.00 0.00 87 1013.4
20240226131219 32 233 0.0 0.0 0.00 0.00 0.00 88 1013.2
20240226130259 30 233 0.0 0.0 0.00 0.00 0.00 87 1013.1
20240226125159 30 233 0.0 0.0 0.00 0.00 0.00 86 1013.0
20240226124200 30 233 0.0 0.0 0.00 0.00 0.00 85 1012.9
20240226123219 30 233 0.0 0.0 0.00 0.00 0.00 85 1012.9
20240226122259 30 233 0.0 0.0 0.00 0.00 0.00 85 1012.8
20240226121200 30 233 0.0 0.0 0.00 0.00 0.00 84 1012.7
20240226120159 30 233 0.0 0.0 0.00 0.00 0.00 84 1012.7
20240226115158 30 233 0.0 0.0 0.00 0.00 0.00 84 1012.6
20240226114159 30 233 0.0 0.0 0.00 0.00 0.00 84 1012.4
20240226113158 30 233 0.0 0.0 0.00 0.00 0.00 83 1012.4
20240226112359 31 233 0.0 0.0 0.00 0.00 0.00 83 1012.3
20240226111158 31 233 0.0 0.0 0.00 0.00 0.00 82 1012.3
20240226110158 31 233 0.0 0.0 0.00 0.00 0.00 82 1012.2
20240226105158 31 233 0.0 0.0 0.00 0.00 0.00 81 1012.2
20240226104158 32 233 0.0 0.0 0.00 0.00 0.00 81 1012.1
20240226103158 32 233 0.0 0.0 0.00 0.00 0.00 80 1012.0
20240226102158 32 233 0.0 0.0 0.00 0.00 0.00 80 1012.0
20240226101158 32 233 0.0 0.0 0.00 0.00 0.00 79 1011.9
20240226100158 32 233 0.0 0.0 0.00 0.00 0.00 78 1012.0
20240226095158 33 233 0.0 0.0 0.00 0.00 0.00 76 1012.0
20240226094258 33 233 0.0 0.0 0.00 0.00 0.00 75 1012.1
20240226093157 33 233 0.0 0.0 0.00 0.00 0.00 74 1012.3
20240226092157 34 233 0.0 0.0 0.00 0.00 0.00 74 1012.3
20240226091157 34 233 0.0 0.0 0.00 0.00 0.00 73 1012.3
20240226090157 35 233 0.0 0.0 0.00 0.00 0.00 72 1012.4
20240226085157 36 233 0.0 0.0 0.00 0.00 0.00 72 1012.4
20240226084157 36 233 0.0 0.0 0.00 0.00 0.00 72 1012.3
20240226083157 36 233 0.0 0.0 0.00 0.00 0.00 71 1012.3
20240226082157 36 233 0.0 2.0 0.00 0.00 0.00 71 1012.2
20240226081157 37 234 0.0 0.0 0.00 0.00 0.00 70 1012.1
20240226080157 37 234 0.0 0.0 0.00 0.00 0.00 70 1012.2
20240226075217 37 234 0.0 0.0 0.00 0.00 0.00 70 1012.2
20240226074157 37 234 0.0 0.0 0.00 0.00 0.00 70 1012.3
20240226073156 38 234 0.0 0.0 0.00 0.00 0.00 70 1012.2
20240226072156 38 234 0.0 0.0 0.00 0.00 0.00 69 1012.2
20240226071156 38 234 0.0 0.0 0.00 0.00 0.00 69 1012.4
20240226070156 38 234 0.0 0.0 0.00 0.00 0.00 68 1012.5
20240226065156 38 234 0.0 0.0 0.00 0.00 0.00 67 1012.4
20240226064157 39 234 0.0 0.0 0.00 0.00 0.00 67 1012.5
20240226063157 39 234 0.0 0.0 0.00 0.00 0.00 66 1012.5
20240226062156 40 234 0.0 0.0 0.00 0.00 0.00 65 1012.5
20240226061216 40 234 0.0 0.0 0.00 0.00 0.00 65 1012.5
20240226060156 40 234 0.0 0.0 0.00 0.00 0.00 64 1012.4
20240226055156 40 234 0.0 0.0 0.00 0.00 0.00 64 1012.4
20240226054156 40 234 0.0 2.0 0.00 0.00 0.00 64 1012.3
20240226053156 40 219 0.0 3.0 0.00 0.00 0.00 65 1012.2
20240226052156 40 200 0.0 0.0 0.00 0.00 0.00 65 1012.3
20240226051155 40 190 0.0 0.0 0.00 0.00 0.00 66 1012.4
20240226050155 40 227 0.0 0.0 0.00 0.00 0.00 67 1012.4
20240226045155 39 227 0.0 0.0 0.00 0.00 0.00 67 1012.6
20240226044155 39 227 0.0 3.0 0.00 0.00 0.00 68 1012.6
20240226043215 39 221 0.0 0.0 0.00 0.00 0.00 68 1012.7
20240226042155 39 222 0.0 0.0 0.00 0.00 0.00 68 1012.7
20240226041155 38 222 0.0 0.0 0.00 0.00 0.00 68 1012.8
20240226040155 39 222 0.0 0.0 0.00 0.00 0.00 67 1012.9
20240226035154 39 222 0.0 0.0 0.00 0.00 0.00 66 1012.6
20240226034154 40 222 0.0 0.0 0.00 0.00 0.00 65 1012.7
20240226033155 40 222 0.0 0.0 0.00 0.00 0.00 64 1012.5
20240226032154 40 222 0.0 0.0 0.00 0.00 0.00 62 1012.6
20240226031154 41 222 0.0 0.0 0.00 0.00 0.00 61 1012.6
20240226030154 42 222 0.0 0.0 0.00 0.00 0.00 61 1012.6
20240226025156 42 222 0.0 0.0 0.00 0.00 0.00 60 1012.7
20240226024154 42 222 0.0 0.0 0.00 0.00 0.00 60 1012.6